Time;durP1;ratioP1;P1;durP2;ratioP2;P2;SDS_P1;SDS_P2;PMS_P1;PMS_P2;Temp;Humidity;BMP_temperature;BMP_pressure;BME280_temperature;BME280_humidity;BME280_pressure;Samples;Min_cycle;Max_cycle;Signal;HPM_P1;HPM_P2
2021/03/05 00:00:40;;;;;;;11.0;4.6;;;;;;;3.8;69.9;102170.0;;;;
2021/03/05 00:02:40;;;;;;;7.8;5.0;;;;;;;4.0;69.9;102170.0;;;;
2021/03/05 00:04:39;;;;;;;7.8;5.0;;;;;;;4.1;69.2;102180.0;;;;
2021/03/05 00:06:39;;;;;;;7.8;5.0;;;;;;;4.2;69.8;102180.0;;;;
2021/03/05 00:10:41;;;;;;;7.8;5.0;;;;;;;4.1;70.2;102180.0;;;;
2021/03/05 00:14:40;;;;;;;7.8;5.0;;;;;;;4.2;70.0;102190.0;;;;
2021/03/05 00:16:39;;;;;;;7.8;5.0;;;;;;;4.3;69.1;102190.0;;;;
2021/03/05 00:18:39;;;;;;;7.8;5.0;;;;;;;4.2;69.6;102190.0;;;;
2021/03/05 00:24:39;;;;;;;12.3;6.1;;;;;;;4.1;69.8;102200.0;;;;
2021/03/05 00:26:39;;;;;;;12.3;6.1;;;;;;;4.2;70.0;102200.0;;;;
2021/03/05 00:28:39;;;;;;;12.3;6.1;;;;;;;4.1;70.2;102210.0;;;;
2021/03/05 00:36:40;;;;;;;12.3;6.1;;;;;;;4.2;70.4;102210.0;;;;
2021/03/05 00:38:39;;;;;;;12.3;6.1;;;;;;;4.1;70.9;102210.0;;;;
2021/03/05 00:40:39;;;;;;;12.3;6.1;;;;;;;4.0;70.5;102210.0;;;;
2021/03/05 00:42:41;;;;;;;12.5;6.0;;;;;;;4.1;70.0;102210.0;;;;
2021/03/05 00:44:39;;;;;;;12.5;6.0;;;;;;;4.0;71.1;102210.0;;;;
2021/03/05 00:46:39;;;;;;;12.5;6.0;;;;;;;3.9;70.3;102210.0;;;;
2021/03/05 00:48:39;;;;;;;12.5;6.0;;;;;;;4.0;70.7;102220.0;;;;
2021/03/05 00:50:39;;;;;;;12.5;6.0;;;;;;;4.2;70.6;102220.0;;;;
2021/03/05 00:56:39;;;;;;;12.5;6.0;;;;;;;4.1;71.0;102220.0;;;;
2021/03/05 01:00:39;;;;;;;12.5;6.0;;;;;;;3.9;71.5;102220.0;;;;
2021/03/05 01:04:39;;;;;;;11.5;7.7;;;;;;;4.0;71.5;102230.0;;;;
2021/03/05 01:06:39;;;;;;;11.5;7.7;;;;;;;4.1;70.8;102230.0;;;;
2021/03/05 01:08:39;;;;;;;11.5;7.7;;;;;;;4.0;71.5;102230.0;;;;
2021/03/05 01:10:40;;;;;;;11.5;7.7;;;;;;;3.9;71.4;102230.0;;;;
2021/03/05 01:14:39;;;;;;;11.5;7.7;;;;;;;4.0;71.5;102230.0;;;;
2021/03/05 01:18:39;;;;;;;11.5;7.7;;;;;;;3.9;71.3;102240.0;;;;
2021/03/05 01:20:41;;;;;;;11.5;7.7;;;;;;;3.8;71.5;102240.0;;;;
2021/03/05 01:28:40;;;;;;;12.9;10.4;;;;;;;3.7;72.1;102250.0;;;;
2021/03/05 01:30:40;;;;;;;12.9;10.4;;;;;;;3.8;71.3;102250.0;;;;
2021/03/05 01:32:40;;;;;;;12.9;10.4;;;;;;;3.9;71.9;102250.0;;;;
2021/03/05 01:34:39;;;;;;;12.9;10.4;;;;;;;3.8;71.7;102250.0;;;;
2021/03/05 01:38:39;;;;;;;12.9;10.4;;;;;;;3.7;71.9;102240.0;;;;
2021/03/05 01:40:42;;;;;;;12.9;10.4;;;;;;;3.9;71.3;102240.0;;;;
2021/03/05 01:42:40;;;;;;;13.2;11.2;;;;;;;3.7;72.0;102250.0;;;;
2021/03/05 01:44:39;;;;;;;13.2;11.2;;;;;;;3.8;71.3;102250.0;;;;
2021/03/05 01:46:40;;;;;;;13.2;11.2;;;;;;;3.7;71.3;102250.0;;;;
2021/03/05 01:50:47;;;;;;;13.2;11.2;;;;;;;3.5;71.7;102260.0;;;;
2021/03/05 01:52:45;;;;;;;13.2;11.2;;;;;;;3.6;71.9;102260.0;;;;
2021/03/05 01:54:39;;;;;;;13.2;11.2;;;;;;;3.5;71.2;102250.0;;;;
2021/03/05 01:56:43;;;;;;;13.2;11.2;;;;;;;3.6;71.0;102250.0;;;;
2021/03/05 01:58:39;;;;;;;13.2;11.2;;;;;;;3.7;71.3;102250.0;;;;
2021/03/05 02:00:44;;;;;;;16.6;12.1;;;;;;;3.8;70.7;102260.0;;;;
2021/03/05 02:02:39;;;;;;;16.6;12.1;;;;;;;3.6;71.0;102260.0;;;;
2021/03/05 02:04:39;;;;;;;16.6;12.1;;;;;;;3.7;71.5;102260.0;;;;
2021/03/05 02:06:39;;;;;;;16.6;12.1;;;;;;;3.5;71.7;102260.0;;;;
2021/03/05 02:08:39;;;;;;;16.6;12.1;;;;;;;3.4;72.0;102260.0;;;;
2021/03/05 02:12:39;;;;;;;16.6;12.1;;;;;;;3.3;71.9;102270.0;;;;
2021/03/05 02:14:39;;;;;;;16.6;12.1;;;;;;;3.4;72.2;102270.0;;;;
2021/03/05 02:16:47;;;;;;;16.6;12.1;;;;;;;3.3;71.9;102270.0;;;;
2021/03/05 02:18:47;;;;;;;16.6;12.1;;;;;;;3.2;72.2;102280.0;;;;
2021/03/05 02:20:59;;;;;;;13.4;11.8;;;;;;;3.3;72.2;102280.0;;;;
2021/03/05 02:22:48;;;;;;;13.4;11.8;;;;;;;3.2;71.7;102280.0;;;;
2021/03/05 02:24:59;;;;;;;13.4;11.8;;;;;;;3.1;72.1;102290.0;;;;
2021/03/05 02:26:53;;;;;;;13.4;11.8;;;;;;;3.0;72.1;102290.0;;;;
2021/03/05 02:30:59;;;;;;;13.4;11.8;;;;;;;3.1;71.8;102300.0;;;;
2021/03/05 02:32:45;;;;;;;13.4;11.8;;;;;;;2.9;71.8;102290.0;;;;
2021/03/05 02:34:45;;;;;;;13.4;11.8;;;;;;;3.0;72.1;102300.0;;;;
2021/03/05 02:36:43;;;;;;;13.4;11.8;;;;;;;2.8;71.4;102300.0;;;;
2021/03/05 02:38:46;;;;;;;13.4;11.8;;;;;;;2.9;72.3;102300.0;;;;
2021/03/05 02:42:45;;;;;;;13.4;12.0;;;;;;;3.0;71.3;102310.0;;;;
2021/03/05 02:44:44;;;;;;;13.4;12.0;;;;;;;2.9;71.5;102310.0;;;;
2021/03/05 02:50:42;;;;;;;13.4;12.0;;;;;;;2.8;71.5;102320.0;;;;
2021/03/05 02:52:42;;;;;;;13.4;12.0;;;;;;;2.6;72.0;102320.0;;;;
2021/03/05 02:54:41;;;;;;;13.4;12.0;;;;;;;2.2;72.8;102320.0;;;;
2021/03/05 02:56:43;;;;;;;13.4;12.0;;;;;;;2.4;72.7;102330.0;;;;
2021/03/05 02:58:41;;;;;;;13.4;12.0;;;;;;;2.3;72.9;102320.0;;;;
2021/03/05 03:00:41;;;;;;;12.6;11.4;;;;;;;2.4;72.2;102320.0;;;;
2021/03/05 03:02:41;;;;;;;12.6;11.4;;;;;;;2.3;72.9;102330.0;;;;
2021/03/05 03:04:42;;;;;;;12.6;11.4;;;;;;;2.1;73.0;102330.0;;;;
2021/03/05 03:08:40;;;;;;;12.6;11.4;;;;;;;2.0;73.9;102340.0;;;;
2021/03/05 03:10:40;;;;;;;12.6;11.4;;;;;;;1.9;74.3;102330.0;;;;
2021/03/05 03:12:41;;;;;;;12.6;11.4;;;;;;;2.2;73.4;102340.0;;;;
2021/03/05 03:14:42;;;;;;;12.6;11.4;;;;;;;2.1;72.9;102340.0;;;;
2021/03/05 03:16:42;;;;;;;12.6;11.4;;;;;;;2.0;73.8;102350.0;;;;
2021/03/05 03:18:42;;;;;;;12.6;11.4;;;;;;;1.9;74.0;102350.0;;;;
2021/03/05 03:20:41;;;;;;;13.8;12.1;;;;;;;2.1;73.4;102350.0;;;;
2021/03/05 03:22:40;;;;;;;13.8;12.1;;;;;;;2.0;73.7;102350.0;;;;
2021/03/05 03:26:39;;;;;;;13.8;12.1;;;;;;;1.9;73.9;102350.0;;;;
2021/03/05 03:34:41;;;;;;;13.8;12.1;;;;;;;2.1;73.2;102360.0;;;;
2021/03/05 03:40:42;;;;;;;14.5;11.7;;;;;;;1.9;73.0;102370.0;;;;
2021/03/05 03:42:40;;;;;;;14.5;11.7;;;;;;;2.0;72.8;102370.0;;;;
2021/03/05 03:48:43;;;;;;;14.5;11.7;;;;;;;1.8;73.0;102380.0;;;;
2021/03/05 03:50:44;;;;;;;14.5;11.7;;;;;;;1.7;73.5;102380.0;;;;
2021/03/05 03:54:42;;;;;;;14.5;11.7;;;;;;;1.6;74.0;102380.0;;;;
2021/03/05 03:56:41;;;;;;;14.5;11.7;;;;;;;1.5;74.4;102380.0;;;;
2021/03/05 03:58:41;;;;;;;14.5;11.7;;;;;;;1.7;73.7;102380.0;;;;
2021/03/05 04:00:40;;;;;;;16.4;13.2;;;;;;;1.8;73.3;102380.0;;;;
2021/03/05 04:02:41;;;;;;;16.4;13.2;;;;;;;1.6;73.1;102380.0;;;;
2021/03/05 04:04:40;;;;;;;16.4;13.2;;;;;;;1.7;73.4;102390.0;;;;
2021/03/05 04:10:40;;;;;;;16.4;13.2;;;;;;;1.5;73.9;102400.0;;;;
2021/03/05 04:12:41;;;;;;;16.4;13.2;;;;;;;1.6;73.8;102400.0;;;;
2021/03/05 04:14:39;;;;;;;16.4;13.2;;;;;;;1.5;73.4;102400.0;;;;
2021/03/05 04:18:40;;;;;;;16.4;13.2;;;;;;;1.6;74.0;102409.99999999999;;;;
2021/03/05 04:20:41;;;;;;;18.3;14.0;;;;;;;1.5;74.0;102409.99999999999;;;;
2021/03/05 04:22:41;;;;;;;18.3;14.0;;;;;;;1.3;74.0;102409.99999999999;;;;
2021/03/05 04:26:40;;;;;;;18.3;14.0;;;;;;;1.4;73.9;102420.0;;;;
2021/03/05 04:32:41;;;;;;;18.3;14.0;;;;;;;1.3;73.9;102430.0;;;;
2021/03/05 04:34:40;;;;;;;18.3;14.0;;;;;;;1.4;73.8;102430.0;;;;
2021/03/05 04:36:39;;;;;;;18.3;14.0;;;;;;;1.5;72.7;102430.0;;;;
2021/03/05 04:38:39;;;;;;;18.3;14.0;;;;;;;1.3;74.3;102430.0;;;;
2021/03/05 04:40:39;;;;;;;16.8;13.4;;;;;;;1.2;72.9;102430.0;;;;
2021/03/05 04:44:39;;;;;;;16.8;13.4;;;;;;;1.3;74.1;102430.0;;;;
2021/03/05 04:46:39;;;;;;;16.8;13.4;;;;;;;1.4;73.9;102440.00000000001;;;;
2021/03/05 04:48:39;;;;;;;16.8;13.4;;;;;;;1.3;73.6;102430.0;;;;
2021/03/05 04:50:39;;;;;;;16.8;13.4;;;;;;;1.2;73.2;102440.00000000001;;;;
2021/03/05 04:52:40;;;;;;;16.8;13.4;;;;;;;1.1;73.4;102440.00000000001;;;;
2021/03/05 04:54:39;;;;;;;16.8;13.4;;;;;;;1.2;73.2;102450.0;;;;
2021/03/05 04:58:39;;;;;;;16.8;13.4;;;;;;;1.1;74.3;102450.0;;;;
2021/03/05 05:02:39;;;;;;;14.9;13.3;;;;;;;1.0;74.0;102459.99999999999;;;;
2021/03/05 05:06:39;;;;;;;14.9;13.3;;;;;;;0.9;72.9;102470.0;;;;
2021/03/05 05:08:39;;;;;;;14.9;13.3;;;;;;;1.0;73.4;102470.0;;;;
2021/03/05 05:10:39;;;;;;;14.9;13.3;;;;;;;0.9;73.3;102470.0;;;;
2021/03/05 05:20:40;;;;;;;14.8;12.4;;;;;;;0.8;73.6;102480.0;;;;
2021/03/05 05:24:39;;;;;;;14.8;12.4;;;;;;;0.7;74.2;102480.0;;;;
2021/03/05 05:26:39;;;;;;;14.8;12.4;;;;;;;0.9;73.3;102480.0;;;;
2021/03/05 05:28:40;;;;;;;14.8;12.4;;;;;;;0.8;73.2;102480.0;;;;
2021/03/05 05:30:39;;;;;;;14.8;12.4;;;;;;;0.7;73.6;102480.0;;;;
2021/03/05 05:34:39;;;;;;;14.8;12.4;;;;;;;0.6;73.9;102490.00000000001;;;;
2021/03/05 05:38:39;;;;;;;14.8;12.4;;;;;;;0.7;73.7;102490.00000000001;;;;
2021/03/05 05:40:40;;;;;;;13.5;11.4;;;;;;;0.6;72.6;102490.00000000001;;;;
2021/03/05 05:44:39;;;;;;;13.5;11.4;;;;;;;0.7;73.2;102500.0;;;;
2021/03/05 05:46:41;;;;;;;13.5;11.4;;;;;;;0.8;73.0;102509.99999999999;;;;
2021/03/05 05:48:39;;;;;;;13.5;11.4;;;;;;;0.6;73.6;102509.99999999999;;;;
2021/03/05 06:00:39;;;;;;;13.9;11.1;;;;;;;0.5;72.9;102520.0;;;;
2021/03/05 06:02:42;;;;;;;13.9;11.1;;;;;;;0.6;72.7;102520.0;;;;
2021/03/05 06:06:39;;;;;;;13.9;11.1;;;;;;;0.4;73.0;102530.0;;;;
2021/03/05 06:12:40;;;;;;;13.9;11.1;;;;;;;0.3;73.4;102540.00000000001;;;;
2021/03/05 06:14:40;;;;;;;13.9;11.1;;;;;;;0.2;73.2;102540.00000000001;;;;
2021/03/05 06:16:52;;;;;;;13.9;11.1;;;;;;;0.3;73.7;102540.00000000001;;;;
2021/03/05 06:18:40;;;;;;;13.9;11.1;;;;;;;0.4;73.0;102540.00000000001;;;;
2021/03/05 06:22:40;;;;;;;13.4;11.0;;;;;;;0.2;72.8;102559.99999999999;;;;
2021/03/05 06:24:43;;;;;;;13.4;11.0;;;;;;;0.3;72.8;102559.99999999999;;;;
2021/03/05 06:30:39;;;;;;;13.4;11.0;;;;;;;0.4;72.5;102570.0;;;;
2021/03/05 06:32:41;;;;;;;13.4;11.0;;;;;;;0.3;72.9;102570.0;;;;
2021/03/05 06:34:44;;;;;;;13.4;11.0;;;;;;;0.1;73.0;102570.0;;;;
2021/03/05 06:38:43;;;;;;;13.4;11.0;;;;;;;0.2;73.2;102570.0;;;;
2021/03/05 06:40:39;;;;;;;13.4;11.1;;;;;;;0.3;72.8;102580.0;;;;
2021/03/05 06:44:42;;;;;;;13.4;11.1;;;;;;;0.2;73.2;102580.0;;;;
2021/03/05 06:50:42;;;;;;;13.4;11.1;;;;;;;0.1;74.0;102600.0;;;;
2021/03/05 06:54:41;;;;;;;13.4;11.1;;;;;;;-0.1;73.4;102609.99999999999;;;;
2021/03/05 06:56:41;;;;;;;13.4;11.1;;;;;;;0.0;74.2;102609.99999999999;;;;
2021/03/05 06:58:49;;;;;;;13.4;11.1;;;;;;;-0.0;72.5;102620.0;;;;
2021/03/05 07:00:41;;;;;;;12.8;11.4;;;;;;;0.0;73.7;102620.0;;;;
2021/03/05 07:04:47;;;;;;;12.8;11.4;;;;;;;0.1;73.6;102620.0;;;;
2021/03/05 07:06:40;;;;;;;12.8;11.4;;;;;;;0.2;73.8;102620.0;;;;
2021/03/05 07:10:39;;;;;;;12.8;11.4;;;;;;;0.1;73.1;102620.0;;;;
2021/03/05 07:12:59;;;;;;;12.8;11.4;;;;;;;0.0;73.8;102630.0;;;;
2021/03/05 07:14:41;;;;;;;12.8;11.4;;;;;;;0.1;73.7;102630.0;;;;
2021/03/05 07:18:39;;;;;;;12.8;11.4;;;;;;;0.0;73.5;102640.00000000001;;;;
2021/03/05 07:20:39;;;;;;;14.3;11.0;;;;;;;-0.1;72.7;102640.00000000001;;;;
2021/03/05 07:22:41;;;;;;;14.3;11.0;;;;;;;-0.0;73.2;102650.0;;;;
2021/03/05 07:24:40;;;;;;;14.3;11.0;;;;;;;-0.1;73.7;102650.0;;;;
2021/03/05 07:28:44;;;;;;;14.3;11.0;;;;;;;0.1;73.1;102650.0;;;;
2021/03/05 07:30:39;;;;;;;14.3;11.0;;;;;;;-0.1;72.3;102659.99999999999;;;;
2021/03/05 07:36:45;;;;;;;14.3;11.0;;;;;;;-0.2;72.4;102670.0;;;;
2021/03/05 07:38:43;;;;;;;14.3;11.0;;;;;;;0.1;72.5;102670.0;;;;
2021/03/05 07:42:40;;;;;;;10.6;9.0;;;;;;;-0.1;72.7;102680.0;;;;
2021/03/05 07:44:40;;;;;;;10.6;9.0;;;;;;;0.2;72.1;102680.0;;;;
2021/03/05 07:46:39;;;;;;;10.6;9.0;;;;;;;0.1;71.6;102680.0;;;;
2021/03/05 07:48:40;;;;;;;10.6;9.0;;;;;;;0.3;72.1;102680.0;;;;
2021/03/05 07:52:40;;;;;;;10.6;9.0;;;;;;;0.4;71.1;102680.0;;;;
2021/03/05 07:54:41;;;;;;;10.6;9.0;;;;;;;0.6;72.3;102680.0;;;;
2021/03/05 07:56:44;;;;;;;10.6;9.0;;;;;;;0.5;71.6;102690.00000000001;;;;
2021/03/05 07:58:47;;;;;;;10.6;9.0;;;;;;;0.7;70.8;102690.00000000001;;;;
2021/03/05 08:00:49;;;;;;;11.3;7.2;;;;;;;0.5;69.8;102700.0;;;;
2021/03/05 08:05:00;;;;;;;11.3;7.2;;;;;;;0.4;70.0;102700.0;;;;
2021/03/05 08:06:40;;;;;;;11.3;7.2;;;;;;;0.6;69.0;102700.0;;;;
2021/03/05 08:10:42;;;;;;;11.3;7.2;;;;;;;0.5;68.7;102700.0;;;;
2021/03/05 08:12:42;;;;;;;11.3;7.2;;;;;;;0.6;68.4;102700.0;;;;
2021/03/05 08:14:39;;;;;;;11.3;7.2;;;;;;;0.7;69.0;102700.0;;;;
2021/03/05 08:16:39;;;;;;;11.3;7.2;;;;;;;0.8;68.9;102709.99999999999;;;;
2021/03/05 08:20:52;;;;;;;7.4;6.2;;;;;;;0.9;68.2;102709.99999999999;;;;
2021/03/05 08:23:01;;;;;;;7.4;6.2;;;;;;;1.0;68.6;102709.99999999999;;;;
2021/03/05 08:24:41;;;;;;;7.4;6.2;;;;;;;0.9;67.3;102709.99999999999;;;;
2021/03/05 08:26:57;;;;;;;7.4;6.2;;;;;;;1.0;67.7;102720.0;;;;
2021/03/05 08:28:43;;;;;;;7.4;6.2;;;;;;;1.2;66.7;102720.0;;;;
2021/03/05 08:30:42;;;;;;;7.4;6.2;;;;;;;1.1;66.5;102720.0;;;;
2021/03/05 08:32:50;;;;;;;7.4;6.2;;;;;;;1.2;66.7;102720.0;;;;
2021/03/05 08:34:45;;;;;;;7.4;6.2;;;;;;;1.5;67.1;102720.0;;;;
2021/03/05 08:36:47;;;;;;;7.4;6.2;;;;;;;1.8;66.4;102720.0;;;;
2021/03/05 08:38:40;;;;;;;5.7;5.1;;;;;;;1.9;66.6;102730.0;;;;
2021/03/05 08:40:48;;;;;;;5.7;5.1;;;;;;;1.7;65.4;102720.0;;;;
2021/03/05 08:42:41;;;;;;;5.7;5.1;;;;;;;1.9;65.9;102720.0;;;;
2021/03/05 08:44:59;;;;;;;5.7;5.1;;;;;;;2.1;65.4;102730.0;;;;
2021/03/05 08:46:39;;;;;;;5.7;5.1;;;;;;;2.2;64.9;102730.0;;;;
2021/03/05 08:48:42;;;;;;;5.7;5.1;;;;;;;2.3;64.7;102730.0;;;;
2021/03/05 08:52:41;;;;;;;5.7;5.1;;;;;;;2.1;65.0;102740.00000000001;;;;
2021/03/05 08:54:39;;;;;;;5.7;5.1;;;;;;;2.3;65.2;102740.00000000001;;;;
2021/03/05 08:58:39;;;;;;;6.0;5.0;;;;;;;2.4;63.9;102740.00000000001;;;;
2021/03/05 09:02:41;;;;;;;6.0;5.0;;;;;;;2.1;64.0;102750.0;;;;
2021/03/05 09:04:40;;;;;;;6.0;5.0;;;;;;;2.4;63.7;102750.0;;;;
2021/03/05 09:06:48;;;;;;;6.0;5.0;;;;;;;2.3;63.8;102759.99999999999;;;;
2021/03/05 09:08:39;;;;;;;6.0;5.0;;;;;;;2.2;64.6;102750.0;;;;
2021/03/05 09:12:53;;;;;;;6.0;5.0;;;;;;;2.5;63.4;102750.0;;;;
2021/03/05 09:16:54;;;;;;;6.0;5.0;;;;;;;2.3;63.4;102750.0;;;;
2021/03/05 09:18:40;;;;;;;10.3;7.3;;;;;;;2.5;63.6;102750.0;;;;
2021/03/05 09:22:39;;;;;;;10.3;7.3;;;;;;;2.4;64.0;102750.0;;;;
2021/03/05 09:24:48;;;;;;;10.3;7.3;;;;;;;2.5;64.1;102750.0;;;;
2021/03/05 09:26:40;;;;;;;10.3;7.3;;;;;;;2.4;63.6;102750.0;;;;
2021/03/05 09:30:40;;;;;;;10.3;7.3;;;;;;;2.3;64.1;102750.0;;;;
2021/03/05 09:32:45;;;;;;;10.3;7.3;;;;;;;2.4;62.1;102759.99999999999;;;;
2021/03/05 09:38:42;;;;;;;9.5;5.3;;;;;;;2.3;59.5;102770.0;;;;
2021/03/05 09:44:41;;;;;;;9.5;5.3;;;;;;;2.4;58.4;102770.0;;;;
2021/03/05 09:46:41;;;;;;;9.5;5.3;;;;;;;2.6;58.5;102770.0;;;;
2021/03/05 09:48:39;;;;;;;9.5;5.3;;;;;;;2.8;59.9;102780.0;;;;
2021/03/05 09:52:39;;;;;;;9.5;5.3;;;;;;;2.9;57.2;102770.0;;;;
2021/03/05 09:54:41;;;;;;;9.5;5.3;;;;;;;3.0;56.6;102770.0;;;;
2021/03/05 09:58:53;;;;;;;5.1;4.6;;;;;;;3.2;56.3;102770.0;;;;
2021/03/05 10:00:39;;;;;;;5.1;4.6;;;;;;;3.3;56.2;102770.0;;;;
2021/03/05 10:02:39;;;;;;;5.1;4.6;;;;;;;3.2;54.3;102770.0;;;;
2021/03/05 10:04:42;;;;;;;5.1;4.6;;;;;;;3.3;55.6;102770.0;;;;
2021/03/05 10:06:39;;;;;;;5.1;4.6;;;;;;;3.1;55.7;102770.0;;;;
2021/03/05 10:08:39;;;;;;;5.1;4.6;;;;;;;3.0;55.7;102780.0;;;;
2021/03/05 10:10:58;;;;;;;5.1;4.6;;;;;;;3.2;55.9;102780.0;;;;
2021/03/05 10:12:39;;;;;;;5.1;4.6;;;;;;;3.5;55.5;102770.0;;;;
2021/03/05 10:16:41;;;;;;;5.1;4.6;;;;;;;3.4;53.6;102780.0;;;;
2021/03/05 10:18:41;;;;;;;8.7;6.1;;;;;;;3.3;53.3;102780.0;;;;
2021/03/05 10:20:39;;;;;;;8.7;6.1;;;;;;;3.4;53.8;102780.0;;;;
2021/03/05 10:22:40;;;;;;;8.7;6.1;;;;;;;3.3;53.5;102780.0;;;;
2021/03/05 10:24:40;;;;;;;8.7;6.1;;;;;;;3.4;54.7;102770.0;;;;
2021/03/05 10:28:40;;;;;;;8.7;6.1;;;;;;;3.5;54.5;102770.0;;;;
2021/03/05 10:30:47;;;;;;;8.7;6.1;;;;;;;3.3;52.7;102770.0;;;;
2021/03/05 10:32:44;;;;;;;8.7;6.1;;;;;;;3.4;53.7;102770.0;;;;
2021/03/05 10:34:39;;;;;;;8.7;6.1;;;;;;;3.5;55.4;102780.0;;;;
2021/03/05 10:36:39;;;;;;;8.7;6.1;;;;;;;3.6;55.1;102780.0;;;;
2021/03/05 10:38:41;;;;;;;8.0;7.3;;;;;;;3.7;53.5;102780.0;;;;
2021/03/05 10:40:39;;;;;;;8.0;7.3;;;;;;;3.6;51.6;102790.00000000001;;;;
2021/03/05 10:44:41;;;;;;;8.0;7.3;;;;;;;3.4;50.5;102790.00000000001;;;;
2021/03/05 10:46:39;;;;;;;8.0;7.3;;;;;;;3.5;49.5;102790.00000000001;;;;
2021/03/05 10:48:39;;;;;;;8.0;7.3;;;;;;;3.7;50.4;102800.0;;;;
2021/03/05 10:50:39;;;;;;;8.0;7.3;;;;;;;3.6;52.4;102790.00000000001;;;;
2021/03/05 10:52:39;;;;;;;8.0;7.3;;;;;;;3.7;49.6;102800.0;;;;
2021/03/05 10:54:41;;;;;;;8.0;7.3;;;;;;;3.9;49.9;102800.0;;;;
2021/03/05 10:56:40;;;;;;;8.0;7.3;;;;;;;3.8;49.3;102800.0;;;;
2021/03/05 11:00:41;;;;;;;5.3;3.7;;;;;;;3.7;48.5;102809.99999999999;;;;
2021/03/05 11:02:40;;;;;;;5.3;3.7;;;;;;;4.0;53.1;102800.0;;;;
2021/03/05 11:04:40;;;;;;;5.3;3.7;;;;;;;4.1;50.6;102800.0;;;;
2021/03/05 11:10:39;;;;;;;5.3;3.7;;;;;;;4.2;48.7;102800.0;;;;
2021/03/05 11:12:39;;;;;;;5.3;3.7;;;;;;;4.0;48.6;102800.0;;;;
2021/03/05 11:14:39;;;;;;;5.3;3.7;;;;;;;3.9;50.3;102809.99999999999;;;;
2021/03/05 11:16:40;;;;;;;5.3;3.7;;;;;;;4.1;50.1;102809.99999999999;;;;
2021/03/05 11:18:39;;;;;;;3.6;3.3;;;;;;;4.0;46.7;102820.0;;;;
2021/03/05 11:22:40;;;;;;;3.6;3.3;;;;;;;4.2;46.8;102809.99999999999;;;;
2021/03/05 11:26:40;;;;;;;3.6;3.3;;;;;;;4.3;48.5;102820.0;;;;
2021/03/05 11:28:39;;;;;;;3.6;3.3;;;;;;;4.4;49.1;102820.0;;;;
2021/03/05 11:38:40;;;;;;;3.4;3.1;;;;;;;4.6;46.4;102830.0;;;;
2021/03/05 11:40:39;;;;;;;3.4;3.1;;;;;;;4.4;43.9;102820.0;;;;
2021/03/05 11:42:39;;;;;;;3.4;3.1;;;;;;;4.6;47.7;102830.0;;;;
2021/03/05 11:46:39;;;;;;;3.4;3.1;;;;;;;4.7;46.2;102820.0;;;;
2021/03/05 11:48:40;;;;;;;3.4;3.1;;;;;;;4.5;45.2;102830.0;;;;
2021/03/05 11:50:41;;;;;;;3.4;3.1;;;;;;;4.4;44.3;102830.0;;;;
2021/03/05 11:52:40;;;;;;;3.4;3.1;;;;;;;4.6;44.8;102820.0;;;;
2021/03/05 11:54:39;;;;;;;3.4;3.1;;;;;;;4.5;43.6;102820.0;;;;
2021/03/05 11:56:39;;;;;;;3.4;3.1;;;;;;;4.8;48.3;102830.0;;;;
2021/03/05 11:58:39;;;;;;;3.8;3.5;;;;;;;4.9;48.1;102820.0;;;;
2021/03/05 12:00:40;;;;;;;3.8;3.5;;;;;;;5.1;46.2;102809.99999999999;;;;
2021/03/05 12:04:40;;;;;;;3.8;3.5;;;;;;;4.9;46.4;102820.0;;;;
2021/03/05 12:06:39;;;;;;;3.8;3.5;;;;;;;5.1;44.8;102820.0;;;;
2021/03/05 12:10:39;;;;;;;3.8;3.5;;;;;;;5.2;45.8;102820.0;;;;
2021/03/05 12:18:39;;;;;;;3.1;2.8;;;;;;;5.4;43.0;102820.0;;;;
2021/03/05 12:20:40;;;;;;;3.1;2.8;;;;;;;5.2;41.3;102820.0;;;;
2021/03/05 12:22:39;;;;;;;3.1;2.8;;;;;;;5.3;44.2;102809.99999999999;;;;
2021/03/05 12:24:39;;;;;;;3.1;2.8;;;;;;;5.2;42.3;102820.0;;;;
2021/03/05 12:26:39;;;;;;;3.1;2.8;;;;;;;5.3;44.3;102820.0;;;;
2021/03/05 12:28:40;;;;;;;3.1;2.8;;;;;;;5.2;42.6;102830.0;;;;
2021/03/05 12:30:39;;;;;;;3.1;2.8;;;;;;;5.1;43.4;102820.0;;;;
2021/03/05 12:32:39;;;;;;;3.1;2.8;;;;;;;5.3;41.5;102830.0;;;;
2021/03/05 12:34:41;;;;;;;3.1;2.8;;;;;;;5.2;44.0;102830.0;;;;
2021/03/05 12:36:39;;;;;;;3.1;2.8;;;;;;;5.3;44.5;102820.0;;;;
2021/03/05 12:40:39;;;;;;;3.1;2.8;;;;;;;5.0;40.9;102820.0;;;;
2021/03/05 12:42:41;;;;;;;3.1;2.8;;;;;;;5.1;37.6;102820.0;;;;
2021/03/05 12:44:40;;;;;;;3.1;2.8;;;;;;;5.4;41.1;102809.99999999999;;;;
2021/03/05 12:48:40;;;;;;;3.1;2.8;;;;;;;5.3;40.0;102820.0;;;;
2021/03/05 12:50:39;;;;;;;3.1;2.8;;;;;;;5.4;42.0;102820.0;;;;
2021/03/05 12:52:39;;;;;;;3.1;2.8;;;;;;;5.6;40.5;102820.0;;;;
2021/03/05 12:54:39;;;;;;;3.1;2.8;;;;;;;5.4;40.6;102820.0;;;;
2021/03/05 12:56:39;;;;;;;3.1;2.8;;;;;;;5.3;39.4;102830.0;;;;
2021/03/05 12:58:39;;;;;;;2.5;2.3;;;;;;;5.7;39.6;102830.0;;;;
2021/03/05 13:00:39;;;;;;;2.5;2.3;;;;;;;5.5;40.1;102820.0;;;;
2021/03/05 13:02:40;;;;;;;2.5;2.3;;;;;;;5.4;40.3;102820.0;;;;
2021/03/05 13:04:40;;;;;;;2.5;2.3;;;;;;;5.6;43.7;102830.0;;;;
2021/03/05 13:10:39;;;;;;;2.5;2.3;;;;;;;5.5;39.5;102830.0;;;;
2021/03/05 13:12:39;;;;;;;2.5;2.3;;;;;;;5.6;41.6;102830.0;;;;
2021/03/05 13:18:39;;;;;;;2.6;2.4;;;;;;;5.7;38.8;102830.0;;;;
2021/03/05 13:20:39;;;;;;;2.6;2.4;;;;;;;5.6;41.9;102840.00000000001;;;;
2021/03/05 13:22:40;;;;;;;2.6;2.4;;;;;;;5.8;43.6;102830.0;;;;
2021/03/05 13:26:39;;;;;;;2.6;2.4;;;;;;;6.0;44.0;102830.0;;;;
2021/03/05 13:28:41;;;;;;;2.6;2.4;;;;;;;6.1;44.5;102840.00000000001;;;;
2021/03/05 13:40:39;;;;;;;2.8;1.9;;;;;;;6.0;42.1;102830.0;;;;
2021/03/05 13:42:40;;;;;;;2.8;1.9;;;;;;;6.1;44.0;102840.00000000001;;;;
2021/03/05 13:44:39;;;;;;;2.8;1.9;;;;;;;6.2;42.4;102840.00000000001;;;;
2021/03/05 13:46:39;;;;;;;2.8;1.9;;;;;;;6.1;41.7;102840.00000000001;;;;
2021/03/05 13:48:41;;;;;;;2.8;1.9;;;;;;;6.2;46.2;102840.00000000001;;;;
2021/03/05 13:50:40;;;;;;;2.8;1.9;;;;;;;6.3;41.4;102840.00000000001;;;;
2021/03/05 13:54:39;;;;;;;2.8;1.9;;;;;;;6.4;41.4;102840.00000000001;;;;
2021/03/05 13:56:39;;;;;;;2.8;1.9;;;;;;;6.1;39.4;102840.00000000001;;;;
2021/03/05 13:58:39;;;;;;;2.4;2.3;;;;;;;6.4;41.5;102840.00000000001;;;;
2021/03/05 14:00:39;;;;;;;2.4;2.3;;;;;;;6.2;41.3;102850.0;;;;
2021/03/05 14:02:39;;;;;;;2.4;2.3;;;;;;;6.0;40.9;102850.0;;;;
2021/03/05 14:04:40;;;;;;;2.4;2.3;;;;;;;6.1;42.3;102840.00000000001;;;;
2021/03/05 14:06:40;;;;;;;2.4;2.3;;;;;;;6.3;39.4;102840.00000000001;;;;
2021/03/05 14:08:39;;;;;;;2.4;2.3;;;;;;;6.5;43.5;102840.00000000001;;;;
2021/03/05 14:10:39;;;;;;;2.4;2.3;;;;;;;6.4;43.7;102840.00000000001;;;;
2021/03/05 14:12:39;;;;;;;2.4;2.3;;;;;;;6.3;39.1;102850.0;;;;
2021/03/05 14:14:39;;;;;;;2.4;2.3;;;;;;;6.2;40.2;102850.0;;;;
2021/03/05 14:16:39;;;;;;;2.4;2.3;;;;;;;6.5;42.7;102850.0;;;;
2021/03/05 14:18:39;;;;;;;2.4;2.2;;;;;;;6.2;38.7;102840.00000000001;;;;
2021/03/05 14:20:40;;;;;;;2.4;2.2;;;;;;;6.3;40.8;102840.00000000001;;;;
2021/03/05 14:22:40;;;;;;;2.4;2.2;;;;;;;6.2;40.8;102840.00000000001;;;;
2021/03/05 14:24:40;;;;;;;2.4;2.2;;;;;;;6.3;39.6;102830.0;;;;
2021/03/05 14:28:40;;;;;;;2.4;2.2;;;;;;;6.0;37.7;102840.00000000001;;;;
2021/03/05 14:30:40;;;;;;;2.4;2.2;;;;;;;5.8;38.4;102840.00000000001;;;;
2021/03/05 14:32:39;;;;;;;2.4;2.2;;;;;;;6.0;40.7;102840.00000000001;;;;
2021/03/05 14:34:39;;;;;;;2.4;2.2;;;;;;;6.2;41.4;102850.0;;;;
2021/03/05 14:36:40;;;;;;;2.4;2.2;;;;;;;6.4;45.6;102840.00000000001;;;;
2021/03/05 14:38:39;;;;;;;2.3;1.9;;;;;;;6.3;42.9;102850.0;;;;
2021/03/05 14:44:39;;;;;;;2.3;1.9;;;;;;;6.1;38.9;102850.0;;;;
2021/03/05 14:46:40;;;;;;;2.3;1.9;;;;;;;6.3;43.4;102850.0;;;;
2021/03/05 14:48:39;;;;;;;2.3;1.9;;;;;;;6.4;39.0;102850.0;;;;
2021/03/05 14:50:40;;;;;;;2.3;1.9;;;;;;;6.2;39.1;102859.99999999999;;;;
2021/03/05 14:54:40;;;;;;;2.3;1.9;;;;;;;6.4;41.2;102859.99999999999;;;;
2021/03/05 14:58:40;;;;;;;3.6;2.2;;;;;;;6.2;40.5;102850.0;;;;
2021/03/05 15:04:39;;;;;;;3.6;2.2;;;;;;;6.6;41.7;102850.0;;;;
2021/03/05 15:06:39;;;;;;;3.6;2.2;;;;;;;6.3;43.0;102850.0;;;;
2021/03/05 15:08:39;;;;;;;3.6;2.2;;;;;;;6.0;41.0;102850.0;;;;
2021/03/05 15:10:41;;;;;;;3.6;2.2;;;;;;;6.3;40.7;102850.0;;;;
2021/03/05 15:14:40;;;;;;;3.6;2.2;;;;;;;6.5;44.3;102850.0;;;;
2021/03/05 15:22:39;;;;;;;2.2;2.0;;;;;;;6.4;43.2;102850.0;;;;
2021/03/05 15:24:39;;;;;;;2.2;2.0;;;;;;;6.3;41.4;102859.99999999999;;;;
2021/03/05 15:30:39;;;;;;;2.2;2.0;;;;;;;6.0;39.8;102859.99999999999;;;;
2021/03/05 15:32:40;;;;;;;2.2;2.0;;;;;;;6.1;41.8;102859.99999999999;;;;
2021/03/05 15:34:39;;;;;;;2.2;2.0;;;;;;;6.2;40.2;102859.99999999999;;;;
2021/03/05 15:36:39;;;;;;;2.2;2.0;;;;;;;6.0;42.0;102850.0;;;;
2021/03/05 15:40:39;;;;;;;2.3;2.1;;;;;;;6.2;42.2;102859.99999999999;;;;
2021/03/05 15:42:40;;;;;;;2.3;2.1;;;;;;;6.4;40.2;102859.99999999999;;;;
2021/03/05 15:44:40;;;;;;;2.3;2.1;;;;;;;6.3;40.2;102859.99999999999;;;;
2021/03/05 15:48:39;;;;;;;2.3;2.1;;;;;;;6.2;40.8;102859.99999999999;;;;
2021/03/05 15:56:42;;;;;;;2.4;2.2;;;;;;;6.3;40.6;102870.0;;;;
2021/03/05 15:58:39;;;;;;;2.4;2.2;;;;;;;6.2;40.5;102859.99999999999;;;;
2021/03/05 16:06:40;;;;;;;2.4;2.2;;;;;;;6.1;42.9;102870.0;;;;
2021/03/05 16:08:39;;;;;;;2.4;2.2;;;;;;;6.2;40.9;102870.0;;;;
2021/03/05 16:10:39;;;;;;;2.4;2.2;;;;;;;6.3;42.0;102880.0;;;;
2021/03/05 16:12:39;;;;;;;2.4;2.2;;;;;;;6.0;41.6;102880.0;;;;
2021/03/05 16:14:40;;;;;;;2.4;2.2;;;;;;;5.9;40.8;102880.0;;;;
2021/03/05 16:16:39;;;;;;;3.0;2.3;;;;;;;6.2;40.9;102880.0;;;;
2021/03/05 16:18:39;;;;;;;3.0;2.3;;;;;;;6.4;43.4;102880.0;;;;
2021/03/05 16:20:39;;;;;;;3.0;2.3;;;;;;;6.2;41.6;102890.00000000001;;;;
2021/03/05 16:24:39;;;;;;;3.0;2.3;;;;;;;6.0;40.6;102890.00000000001;;;;
2021/03/05 16:30:39;;;;;;;3.0;2.3;;;;;;;5.9;41.8;102900.0;;;;
2021/03/05 16:32:40;;;;;;;3.0;2.3;;;;;;;6.0;44.2;102890.00000000001;;;;
2021/03/05 16:34:39;;;;;;;3.0;2.3;;;;;;;6.2;43.9;102900.0;;;;
2021/03/05 16:36:41;;;;;;;3.0;2.1;;;;;;;6.3;45.7;102900.0;;;;
2021/03/05 16:38:39;;;;;;;3.0;2.1;;;;;;;6.1;44.4;102900.0;;;;
2021/03/05 16:40:42;;;;;;;3.0;2.1;;;;;;;5.8;42.0;102900.0;;;;
2021/03/05 16:42:39;;;;;;;3.0;2.1;;;;;;;6.0;42.6;102900.0;;;;
2021/03/05 16:44:39;;;;;;;3.0;2.1;;;;;;;5.9;46.2;102909.99999999999;;;;
2021/03/05 16:48:40;;;;;;;3.0;2.1;;;;;;;6.0;44.3;102900.0;;;;
2021/03/05 16:54:39;;;;;;;3.0;2.1;;;;;;;6.1;44.5;102909.99999999999;;;;
2021/03/05 16:56:39;;;;;;;3.5;2.8;;;;;;;6.0;44.5;102909.99999999999;;;;
2021/03/05 17:00:41;;;;;;;3.5;2.8;;;;;;;5.8;46.2;102920.0;;;;
2021/03/05 17:02:40;;;;;;;3.5;2.8;;;;;;;5.7;43.9;102920.0;;;;
2021/03/05 17:04:41;;;;;;;3.5;2.8;;;;;;;5.6;45.0;102930.0;;;;
2021/03/05 17:06:39;;;;;;;3.5;2.8;;;;;;;5.7;47.8;102920.0;;;;
2021/03/05 17:08:40;;;;;;;3.5;2.8;;;;;;;5.8;50.1;102930.0;;;;